Time;durP1;ratioP1;P1;durP2;ratioP2;P2;SDS_P1;SDS_P2;PMS_P1;PMS_P2;Temp;Humidity;BMP_temperature;BMP_pressure;BME280_temperature;BME280_humidity;BME280_pressure;Samples;Min_cycle;Max_cycle;Signal;HPM_P1;HPM_P2
2022/04/22 00:00:17;;;;;;;9.60;7.00;;;7.90;64.20;;;;;;4953794;29;20043;-71
2022/04/22 00:02:44;;;;;;;9.70;6.63;;;7.80;64.30;;;;;;4936867;29;20056;-72
2022/04/22 00:05:12;;;;;;;10.15;7.18;;;7.80;64.50;;;;;;4953906;29;20043;-72
2022/04/22 00:07:39;;;;;;;10.00;6.85;;;7.80;64.60;;;;;;4952442;29;20055;-72
2022/04/22 00:10:09;;;;;;;12.57;7.85;;;7.80;64.70;;;;;;4953817;28;20047;-72
2022/04/22 00:12:38;;;;;;;11.25;7.50;;;7.70;64.90;;;;;;4955731;28;20094;-72
2022/04/22 00:15:07;;;;;;;12.80;7.93;;;7.60;65.00;;;;;;4956703;28;20058;-72
2022/04/22 00:17:34;;;;;;;12.13;7.63;;;7.60;65.60;;;;;;4924050;29;20445;-72
2022/04/22 00:20:03;;;;;;;13.07;8.00;;;7.60;65.70;;;;;;4940492;29;20051;-72
2022/04/22 00:22:30;;;;;;;10.55;7.90;;;7.50;65.90;;;;;;4957397;28;20054;-72
2022/04/22 00:24:58;;;;;;;11.25;8.02;;;7.50;66.10;;;;;;4940323;29;20066;-72
2022/04/22 00:27:25;;;;;;;13.02;8.20;;;7.50;66.30;;;;;;4957459;28;20405;-72
2022/04/22 00:29:53;;;;;;;12.77;7.63;;;7.40;66.50;;;;;;4924171;29;20066;-72
2022/04/22 00:32:21;;;;;;;9.40;7.50;;;7.40;66.60;;;;;;4957127;29;20481;-72
2022/04/22 00:34:48;;;;;;;13.23;8.38;;;7.30;67.20;;;;;;4956214;28;20424;-72
2022/04/22 00:37:16;;;;;;;14.10;9.32;;;7.40;67.70;;;;;;4957315;29;20043;-72
2022/04/22 00:39:43;;;;;;;13.32;8.60;;;7.40;67.90;;;;;;4940045;29;20501;-71
2022/04/22 00:42:11;;;;;;;11.25;8.00;;;7.30;67.70;;;;;;4957490;29;20114;-71
2022/04/22 00:44:39;;;;;;;16.40;8.82;;;7.30;67.80;;;;;;4957426;28;20059;-72
2022/04/22 00:47:07;;;;;;;15.60;8.35;;;7.30;68.00;;;;;;4923469;29;20070;-71
2022/04/22 00:49:35;;;;;;;17.98;8.95;;;7.20;68.10;;;;;;4939643;28;20059;-72
2022/04/22 00:52:04;;;;;;;16.30;9.85;;;7.20;68.40;;;;;;4924095;29;20054;-72
2022/04/22 00:54:35;;;;;;;15.13;9.48;;;7.20;68.60;;;;;;4956257;29;20074;-72
2022/04/22 00:57:04;;;;;;;12.65;9.02;;;7.20;68.80;;;;;;4956963;29;20491;-72
2022/04/22 00:59:33;;;;;;;18.67;9.60;;;7.20;68.80;;;;;;4926637;29;20524;-71
2022/04/22 01:02:00;;;;;;;15.88;10.82;;;7.10;68.80;;;;;;4920906;29;20055;-72
2022/04/22 01:10:00;;;;;;;16.30;10.50;;;7.10;69.70;;;;;;4937628;29;20047;-71
2022/04/22 01:12:31;;;;;;;15.90;10.70;;;7.10;69.60;;;;;;4937350;29;20051;-70
2022/04/22 01:14:59;;;;;;;19.50;10.80;;;7.00;69.60;;;;;;4937435;29;20047;-71
2022/04/22 01:17:27;;;;;;;19.05;11.57;;;7.10;69.90;;;;;;4937374;29;20044;-71
2022/04/22 01:19:55;;;;;;;23.10;13.27;;;7.00;70.00;;;;;;4937325;29;20063;-71
2022/04/22 01:22:23;;;;;;;22.55;14.57;;;7.00;70.20;;;;;;4937175;29;20047;-72
2022/04/22 01:24:58;;;;;;;30.33;16.15;;;6.90;70.40;;;;;;4935376;29;20060;-71
2022/04/22 01:27:29;;;;;;;23.98;15.70;;;6.90;70.70;;;;;;4937185;29;20402;-72
2022/04/22 01:30:00;;;;;;;30.73;17.38;;;6.80;70.90;;;;;;4920289;29;20143;-72
2022/04/22 01:32:29;;;;;;;34.65;19.92;;;6.80;71.30;;;;;;4937117;29;20379;-72
2022/04/22 01:34:56;;;;;;;34.92;20.88;;;6.80;71.80;;;;;;4936946;29;20058;-72
2022/04/22 01:37:24;;;;;;;33.67;20.70;;;6.80;72.00;;;;;;4937046;29;20474;-72
2022/04/22 01:39:52;;;;;;;39.80;21.88;;;6.80;72.40;;;;;;4936969;29;20051;-72
2022/04/22 01:42:20;;;;;;;40.53;23.70;;;6.80;72.60;;;;;;4919938;29;20059;-72
2022/04/22 01:44:49;;;;;;;41.25;24.17;;;6.80;72.70;;;;;;4919954;29;20059;-71
2022/04/22 01:47:17;;;;;;;42.22;26.00;;;6.70;73.00;;;;;;4936754;29;20501;-73
2022/04/22 01:49:45;;;;;;;46.28;26.75;;;6.70;73.20;;;;;;4936536;29;20051;-71
2022/04/22 01:52:13;;;;;;;45.22;27.83;;;6.70;73.60;;;;;;4936669;29;20078;-71
2022/04/22 01:54:40;;;;;;;48.95;29.40;;;6.60;73.90;;;;;;4919633;29;20540;-71
2022/04/22 01:57:08;;;;;;;54.42;31.05;;;6.60;74.20;;;;;;4936056;29;20073;-72
2022/04/22 01:59:37;;;;;;;48.13;29.75;;;6.60;74.40;;;;;;4936553;29;20074;-71
2022/04/22 02:02:04;;;;;;;46.13;29.83;;;6.50;74.70;;;;;;4936466;29;20048;-71
2022/04/22 02:04:32;;;;;;;50.92;30.60;;;6.50;74.90;;;;;;4936278;29;20062;-71
2022/04/22 02:07:00;;;;;;;52.70;30.13;;;6.40;75.10;;;;;;4919228;29;20055;-71
2022/04/22 02:09:28;;;;;;;45.22;28.98;;;6.30;75.30;;;;;;4935507;29;20052;-71
2022/04/22 02:11:58;;;;;;;48.60;29.85;;;6.30;75.60;;;;;;4936322;29;20075;-71
2022/04/22 02:14:26;;;;;;;49.97;29.20;;;6.30;75.80;;;;;;4919222;29;20067;-71
2022/04/22 02:16:54;;;;;;;48.20;28.73;;;6.30;75.90;;;;;;4919401;29;20055;-71
2022/04/22 02:19:21;;;;;;;51.67;29.20;;;6.30;76.10;;;;;;4903528;29;20529;-71
2022/04/22 02:21:51;;;;;;;53.20;28.63;;;6.30;76.20;;;;;;4918849;29;20047;-71
2022/04/22 02:24:19;;;;;;;51.50;28.90;;;6.20;76.50;;;;;;4936046;29;20055;-71
2022/04/22 02:29:33;;;;;;;49.28;28.95;;;6.20;76.90;;;;;;4918939;29;20055;-71
2022/04/22 02:32:01;;;;;;;46.95;29.33;;;6.20;77.10;;;;;;4935922;29;20056;-71
2022/04/22 02:34:28;;;;;;;48.22;28.35;;;6.20;77.10;;;;;;4935478;29;20052;-71
2022/04/22 02:36:56;;;;;;;51.53;27.05;;;6.30;77.10;;;;;;4935751;29;20047;-71
2022/04/22 02:39:23;;;;;;;48.70;28.73;;;6.30;77.20;;;;;;4918640;29;20066;-71
2022/04/22 02:47:23;;;;;;;44.58;27.70;;;6.40;77.20;;;;;;4935671;29;20051;-71
2022/04/22 02:49:51;;;;;;;42.35;25.73;;;6.40;77.60;;;;;;4935617;29;20063;-71
2022/04/22 02:52:19;;;;;;;43.00;24.35;;;6.40;77.90;;;;;;4935578;29;20048;-71
2022/04/22 02:54:47;;;;;;;38.72;22.73;;;6.50;78.20;;;;;;4935242;29;20075;-71
2022/04/22 02:57:16;;;;;;;35.33;22.02;;;6.60;78.30;;;;;;4935622;29;20052;-71
2022/04/22 02:59:45;;;;;;;32.10;20.08;;;6.70;78.60;;;;;;4933630;29;20074;-71
2022/04/22 03:02:12;;;;;;;33.13;19.63;;;6.80;78.50;;;;;;4918588;29;20047;-71
2022/04/22 03:04:41;;;;;;;32.35;19.83;;;6.80;78.60;;;;;;4918193;29;20070;-71
2022/04/22 03:07:08;;;;;;;28.65;20.02;;;6.90;78.70;;;;;;4935410;29;20047;-72
2022/04/22 03:09:36;;;;;;;26.05;18.02;;;6.90;78.60;;;;;;4933942;29;20056;-71
2022/04/22 03:12:04;;;;;;;27.35;17.58;;;7.00;78.80;;;;;;4918232;29;20406;-70
2022/04/22 03:14:32;;;;;;;31.90;18.83;;;7.00;78.90;;;;;;4935486;29;20397;-71
2022/04/22 03:17:02;;;;;;;25.00;17.17;;;7.10;79.00;;;;;;4918330;29;20050;-71
2022/04/22 03:19:31;;;;;;;24.98;17.33;;;7.10;78.90;;;;;;4935194;29;20506;-71
2022/04/22 03:21:59;;;;;;;28.52;18.58;;;7.20;79.00;;;;;;4934939;29;20059;-71
2022/04/22 03:24:26;;;;;;;28.27;17.42;;;7.20;78.90;;;;;;4917436;29;20067;-71
2022/04/22 03:26:54;;;;;;;24.55;17.38;;;7.20;78.90;;;;;;4918016;29;20055;-71
2022/04/22 03:29:22;;;;;;;26.70;16.58;;;7.30;79.00;;;;;;4935286;29;20406;-71
2022/04/22 03:31:49;;;;;;;22.63;15.95;;;7.30;78.80;;;;;;4934944;29;20052;-71
2022/04/22 03:34:17;;;;;;;26.50;16.25;;;7.30;78.70;;;;;;4902209;29;20055;-72
2022/04/22 03:36:44;;;;;;;23.83;16.70;;;7.30;78.60;;;;;;4934978;29;20061;-72
2022/04/22 03:39:12;;;;;;;22.63;16.33;;;7.30;78.50;;;;;;4934883;29;20401;-72
2022/04/22 03:41:40;;;;;;;21.67;16.00;;;7.30;78.30;;;;;;4934971;29;20497;-72
2022/04/22 03:44:07;;;;;;;22.60;14.82;;;7.30;78.30;;;;;;4933595;29;20044;-72
2022/04/22 03:46:35;;;;;;;20.65;15.00;;;7.30;78.10;;;;;;4934026;29;20410;-72
2022/04/22 03:49:04;;;;;;;20.35;15.18;;;7.30;78.10;;;;;;4901989;29;20536;-72
2022/04/22 03:51:32;;;;;;;21.77;14.77;;;7.40;78.00;;;;;;4934544;29;20067;-72
2022/04/22 03:54:00;;;;;;;19.75;13.80;;;7.40;77.80;;;;;;4901737;29;20071;-70
2022/04/22 03:59:14;;;;;;;22.83;15.10;;;7.40;77.70;;;;;;4942291;28;20051;-72
2022/04/22 04:01:43;;;;;;;18.65;14.45;;;7.50;77.50;;;;;;4953254;28;20059;-72
2022/04/22 04:04:11;;;;;;;20.63;14.68;;;7.50;77.20;;;;;;4953671;29;20051;-72
2022/04/22 04:06:39;;;;;;;22.45;15.48;;;7.60;77.20;;;;;;4936570;29;20061;-71
2022/04/22 04:17:24;;;;;;;25.20;15.55;;;7.60;77.10;;;;;;4953753;29;20054;-72
2022/04/22 04:25:24;;;;;;;24.48;16.95;;;7.70;77.20;;;;;;4936481;29;20047;-71
2022/04/22 04:27:52;;;;;;;24.85;16.60;;;7.70;77.30;;;;;;4953555;29;20047;-71
2022/04/22 04:30:20;;;;;;;21.65;16.45;;;7.70;77.40;;;;;;4953566;28;20525;-71
2022/04/22 04:32:47;;;;;;;22.92;16.55;;;7.70;77.50;;;;;;4935987;29;20059;-72
2022/04/22 04:35:15;;;;;;;25.88;15.82;;;7.70;77.60;;;;;;4953394;29;20474;-71
2022/04/22 04:37:43;;;;;;;22.70;16.23;;;7.70;77.70;;;;;;4953414;28;20062;-71
2022/04/22 04:40:11;;;;;;;20.45;15.45;;;7.70;77.90;;;;;;4953441;29;20610;-71
2022/04/22 04:42:40;;;;;;;20.75;15.65;;;7.70;78.00;;;;;;4952420;28;20430;-71
2022/04/22 04:45:09;;;;;;;23.60;16.00;;;7.80;78.00;;;;;;4953408;28;20047;-71
2022/04/22 04:47:40;;;;;;;21.58;15.52;;;7.80;78.00;;;;;;4920399;29;20047;-71
2022/04/22 04:50:09;;;;;;;19.20;14.02;;;7.80;78.00;;;;;;4953260;29;20481;-71
2022/04/22 04:52:37;;;;;;;19.08;12.73;;;7.80;78.30;;;;;;4952634;28;20055;-71
2022/04/22 04:55:06;;;;;;;19.25;12.52;;;7.80;78.40;;;;;;4953192;28;20496;-71
2022/04/22 04:57:34;;;;;;;19.52;12.38;;;7.80;78.30;;;;;;4953866;28;20055;-71
2022/04/22 05:00:06;;;;;;;21.10;12.80;;;7.80;78.10;;;;;;4939830;29;20043;-70
2022/04/22 05:02:35;;;;;;;18.70;12.00;;;7.90;78.00;;;;;;4956788;28;20070;-71
2022/04/22 05:05:05;;;;;;;18.65;12.05;;;7.90;78.00;;;;;;4956588;28;20409;-72
2022/04/22 05:07:34;;;;;;;16.05;11.95;;;7.90;78.00;;;;;;4956623;28;20047;-71
2022/04/22 05:10:02;;;;;;;19.92;10.98;;;7.90;78.10;;;;;;4956614;28;20054;-72
2022/04/22 05:12:32;;;;;;;23.58;12.45;;;7.90;78.30;;;;;;4956605;29;20661;-73
2022/04/22 05:15:00;;;;;;;20.50;11.27;;;7.90;78.20;;;;;;4938612;29;20527;-72
2022/04/22 05:17:27;;;;;;;18.92;11.77;;;7.90;78.20;;;;;;4956581;28;20051;-72
2022/04/22 05:19:55;;;;;;;17.65;10.93;;;7.90;78.10;;;;;;4956221;28;20051;-72
2022/04/22 05:22:23;;;;;;;18.70;12.18;;;7.90;78.00;;;;;;4938374;29;20517;-72
2022/04/22 05:24:51;;;;;;;17.70;12.10;;;7.90;78.20;;;;;;4939396;29;20055;-72
2022/04/22 05:27:18;;;;;;;16.95;11.70;;;8.00;78.10;;;;;;4939096;29;20043;-72
2022/04/22 05:32:38;;;;;;;19.63;11.70;;;8.10;78.20;;;;;;4956124;28;20039;-73
2022/04/22 05:35:08;;;;;;;16.25;12.15;;;8.10;78.20;;;;;;4955961;29;20055;-72
2022/04/22 05:37:52;;;;;;;20.52;12.68;;;8.20;78.10;;;;;;4955953;28;20047;-72
2022/04/22 05:40:31;;;;;;;15.15;10.90;;;8.20;78.10;;;;;;4956099;29;20051;-72
2022/04/22 05:42:59;;;;;;;18.90;10.50;;;8.30;78.00;;;;;;4938982;29;20063;-71
2022/04/22 05:45:27;;;;;;;20.30;11.13;;;8.30;77.90;;;;;;4955919;28;20051;-72
2022/04/22 05:47:56;;;;;;;17.98;10.70;;;8.30;77.70;;;;;;4938802;29;20047;-72
2022/04/22 05:50:25;;;;;;;18.42;11.52;;;8.40;77.80;;;;;;4955910;28;20467;-72
2022/04/22 05:52:53;;;;;;;18.40;11.07;;;8.40;77.60;;;;;;4954884;28;20059;-72
2022/04/22 05:55:27;;;;;;;18.83;10.70;;;8.40;77.60;;;;;;4954923;29;20051;-71
2022/04/22 05:57:56;;;;;;;15.05;9.45;;;8.50;77.50;;;;;;4955301;28;20054;-71
2022/04/22 06:00:25;;;;;;;17.58;10.48;;;8.50;77.40;;;;;;4955882;29;20051;-71
2022/04/22 06:02:54;;;;;;;17.92;10.43;;;8.50;77.40;;;;;;4955518;28;20516;-72
2022/04/22 06:05:22;;;;;;;15.60;9.70;;;8.60;77.30;;;;;;4955567;29;20401;-72
2022/04/22 06:10:31;;;;;;;19.50;10.65;;;8.60;77.20;;;;;;4954810;29;20062;-72
2022/04/22 06:10:40;;;;;;;15.57;10.38;;;8.70;77.10;;;;;;4953809;28;20051;-72
2022/04/22 06:13:08;;;;;;;19.92;10.63;;;8.70;77.00;;;;;;4954714;28;20055;-72
2022/04/22 06:15:35;;;;;;;19.67;10.40;;;8.80;76.90;;;;;;4938194;29;20054;-71
2022/04/22 06:18:03;;;;;;;15.27;9.05;;;8.80;76.80;;;;;;4936382;29;20074;-72
2022/04/22 06:20:32;;;;;;;19.13;10.13;;;8.80;76.70;;;;;;4955107;29;20058;-72
2022/04/22 06:23:00;;;;;;;16.85;9.93;;;8.90;76.60;;;;;;4937907;29;20065;-72
2022/04/22 06:25:29;;;;;;;18.35;9.55;;;8.90;76.50;;;;;;4955172;29;20051;-71
2022/04/22 06:27:57;;;;;;;19.52;9.60;;;9.00;76.40;;;;;;4955069;29;20062;-71
2022/04/22 06:30:25;;;;;;;15.40;9.50;;;9.00;76.30;;;;;;4955013;29;20043;-72
2022/04/22 06:32:54;;;;;;;18.00;10.07;;;9.00;76.30;;;;;;4954858;29;20047;-72
2022/04/22 06:35:22;;;;;;;16.15;9.75;;;9.00;76.20;;;;;;4954842;28;20058;-71
2022/04/22 06:37:51;;;;;;;15.70;9.05;;;9.10;76.10;;;;;;4954381;28;20055;-71
2022/04/22 06:45:55;;;;;;;16.52;9.40;;;9.20;75.80;;;;;;4954735;29;20039;-72
2022/04/22 06:48:35;;;;;;;18.25;9.00;;;9.30;75.70;;;;;;4954815;28;20070;-72
2022/04/22 06:51:12;;;;;;;17.77;8.95;;;9.30;75.60;;;;;;4954630;28;20047;-71
2022/04/22 06:53:41;;;;;;;17.38;9.43;;;9.30;75.50;;;;;;4954519;29;20127;-71
2022/04/22 06:56:09;;;;;;;17.88;8.77;;;9.30;75.40;;;;;;4937226;29;20486;-71
2022/04/22 06:58:38;;;;;;;15.27;9.15;;;9.30;75.30;;;;;;4954446;28;20039;-72
2022/04/22 07:01:08;;;;;;;15.40;8.60;;;9.30;75.20;;;;;;4954382;29;20207;-71
2022/04/22 07:03:57;;;;;;;17.77;8.68;;;9.40;75.20;;;;;;4937090;29;20055;-71
2022/04/22 07:06:25;;;;;;;14.70;8.18;;;9.40;75.00;;;;;;4937067;29;20047;-72
2022/04/22 07:08:54;;;;;;;14.55;8.02;;;9.50;74.90;;;;;;4954128;28;20047;-71
2022/04/22 07:11:25;;;;;;;14.68;7.75;;;9.50;74.80;;;;;;4936959;29;20383;-71
2022/04/22 07:13:54;;;;;;;17.38;8.65;;;9.50;74.60;;;;;;4937250;29;20047;-72
2022/04/22 07:16:23;;;;;;;22.08;7.95;;;9.50;74.50;;;;;;4937120;29;20051;-71
2022/04/22 07:18:55;;;;;;;14.82;7.18;;;9.60;74.40;;;;;;4937196;29;20059;-71
2022/04/22 07:21:24;;;;;;;18.33;7.50;;;9.60;74.30;;;;;;4954278;28;20051;-71
2022/04/22 07:23:58;;;;;;;14.43;6.85;;;9.70;74.20;;;;;;4954360;29;20304;-71
2022/04/22 07:26:27;;;;;;;19.52;7.85;;;9.70;74.10;;;;;;4954146;29;20493;-71
2022/04/22 07:28:58;;;;;;;19.90;7.53;;;9.70;74.00;;;;;;4954154;29;20063;-71
2022/04/22 07:31:30;;;;;;;15.85;9.10;;;9.70;74.00;;;;;;4937246;29;20401;-72
2022/04/22 07:33:58;;;;;;;13.27;7.93;;;9.70;74.00;;;;;;4937138;29;20535;-71
2022/04/22 07:36:26;;;;;;;15.48;8.55;;;9.70;74.00;;;;;;4936892;29;20310;-71
2022/04/22 07:38:54;;;;;;;12.70;6.00;;;9.70;73.90;;;;;;4954315;28;20053;-71
2022/04/22 07:41:27;;;;;;;12.48;6.75;;;9.80;73.90;;;;;;4905772;29;20062;-71
2022/04/22 07:46:49;;;;;;;17.85;8.18;;;9.80;73.80;;;;;;4936925;29;20051;-71
2022/04/22 07:49:20;;;;;;;14.00;7.15;;;9.90;73.80;;;;;;4936782;29;20062;-71
2022/04/22 07:51:49;;;;;;;14.95;7.50;;;9.90;73.80;;;;;;4936507;29;20062;-71
2022/04/22 07:54:23;;;;;;;17.92;7.55;;;10.00;73.80;;;;;;4936450;28;20378;-71
2022/04/22 07:56:50;;;;;;;18.83;7.20;;;10.00;73.60;;;;;;4953061;28;20485;-71
2022/04/22 07:59:18;;;;;;;14.93;7.53;;;10.10;73.60;;;;;;4936035;29;20047;-71
2022/04/22 08:01:46;;;;;;;21.23;8.02;;;10.10;73.50;;;;;;4921318;29;20055;-70
2022/04/22 08:04:16;;;;;;;15.43;7.88;;;10.10;73.40;;;;;;4949580;28;20048;-71
2022/04/22 08:06:43;;;;;;;15.80;8.70;;;10.30;73.40;;;;;;4952490;28;20054;-71
2022/04/22 08:09:31;;;;;;;13.57;7.90;;;10.30;73.30;;;;;;4952429;29;20039;-71
2022/04/22 08:12:00;;;;;;;18.60;8.45;;;10.40;73.10;;;;;;4936091;29;20058;-71
2022/04/22 08:14:28;;;;;;;14.23;8.50;;;10.50;72.90;;;;;;4953564;28;20047;-71
2022/04/22 08:16:55;;;;;;;18.42;7.72;;;10.50;72.80;;;;;;4936505;29;20064;-71
2022/04/22 08:19:23;;;;;;;14.45;7.65;;;10.60;72.70;;;;;;4936462;28;20047;-72
2022/04/22 08:21:52;;;;;;;16.80;8.07;;;10.60;72.40;;;;;;4952738;29;20624;-71
2022/04/22 08:24:19;;;;;;;19.42;7.70;;;10.70;72.10;;;;;;4935957;29;20051;-71
2022/04/22 08:26:47;;;;;;;19.88;8.52;;;10.70;71.90;;;;;;4953442;29;20062;-72
2022/04/22 08:29:20;;;;;;;22.55;9.55;;;10.70;71.90;;;;;;4936222;29;20043;-71
2022/04/22 08:31:47;;;;;;;15.18;6.90;;;10.70;71.80;;;;;;4954016;28;20051;-72
2022/04/22 08:34:15;;;;;;;19.13;8.07;;;10.80;71.60;;;;;;4938919;29;20355;-72
2022/04/22 08:36:43;;;;;;;15.38;7.68;;;10.80;71.40;;;;;;4956691;28;20051;-71
2022/04/22 08:39:11;;;;;;;15.23;7.45;;;10.90;71.10;;;;;;4957068;28;20070;-71
2022/04/22 08:41:41;;;;;;;21.95;7.78;;;10.90;70.90;;;;;;4955937;28;20055;-71
2022/04/22 08:44:12;;;;;;;14.25;7.82;;;11.00;70.80;;;;;;4957104;28;20073;-73
2022/04/22 08:52:16;;;;;;;19.00;7.53;;;11.20;70.40;;;;;;4956829;28;20056;-72
2022/04/22 08:54:45;;;;;;;17.02;7.47;;;11.30;70.30;;;;;;4956764;28;20062;-72
2022/04/22 08:57:14;;;;;;;19.27;8.07;;;11.40;70.00;;;;;;4954777;29;20066;-72
2022/04/22 08:59:42;;;;;;;16.27;7.20;;;11.50;69.90;;;;;;4953053;29;20052;-73
2022/04/22 09:02:09;;;;;;;17.55;7.53;;;11.70;69.90;;;;;;4938645;29;20058;-72
2022/04/22 09:04:37;;;;;;;14.40;7.38;;;11.80;69.50;;;;;;4939225;29;20059;-73
2022/04/22 09:07:08;;;;;;;11.93;6.55;;;11.90;69.20;;;;;;4938754;29;20054;-72
2022/04/22 09:09:35;;;;;;;15.23;7.45;;;12.00;68.70;;;;;;4939463;29;20074;-72
2022/04/22 09:12:08;;;;;;;17.60;7.60;;;12.20;68.10;;;;;;4956304;28;20043;-72
2022/04/22 09:14:35;;;;;;;15.15;7.45;;;12.20;68.10;;;;;;4956110;29;20073;-72
2022/04/22 09:17:03;;;;;;;15.70;6.88;;;12.30;67.90;;;;;;4956098;28;20054;-72
2022/04/22 09:19:35;;;;;;;13.25;6.72;;;12.50;67.40;;;;;;4956169;28;20488;-73
2022/04/22 09:22:03;;;;;;;13.88;6.75;;;12.60;67.20;;;;;;4938898;28;20072;-73
2022/04/22 09:24:31;;;;;;;13.20;6.75;;;12.70;67.10;;;;;;4956054;28;20050;-72
2022/04/22 09:27:06;;;;;;;18.80;6.30;;;12.80;66.70;;;;;;4938935;29;20065;-72
2022/04/22 09:29:51;;;;;;;15.13;6.72;;;12.90;66.40;;;;;;4954675;28;20051;-72
2022/04/22 09:32:30;;;;;;;16.55;6.38;;;13.00;65.70;;;;;;4955916;29;20061;-72
2022/04/22 09:35:17;;;;;;;12.35;5.97;;;13.00;65.50;;;;;;4956029;29;20047;-72
2022/04/22 09:43:34;;;;;;;15.98;6.07;;;13.50;64.20;;;;;;4956072;28;20043;-73
2022/04/22 09:46:24;;;;;;;13.27;5.90;;;13.60;64.00;;;;;;4937941;29;20039;-74
2022/04/22 09:48:56;;;;;;;13.35;6.22;;;13.70;63.50;;;;;;4956098;28;20051;-73
2022/04/22 09:51:30;;;;;;;15.02;5.93;;;13.70;63.30;;;;;;4956027;28;20063;-73
2022/04/22 09:54:14;;;;;;;12.85;6.60;;;13.80;63.10;;;;;;4923001;29;20043;-74
2022/04/22 09:56:58;;;;;;;13.93;5.75;;;13.80;63.40;;;;;;4938873;29;20047;-73
2022/04/22 09:59:27;;;;;;;14.30;5.97;;;13.90;63.20;;;;;;4955563;28;20051;-73
2022/04/22 10:01:55;;;;;;;15.93;6.40;;;13.90;62.70;;;;;;4955831;28;20056;-73
2022/04/22 10:04:33;;;;;;;10.77;5.80;;;14.00;62.70;;;;;;4940206;29;20128;-72
2022/04/22 10:07:04;;;;;;;12.25;5.60;;;14.10;62.50;;;;;;4955163;29;20051;-72
2022/04/22 10:09:35;;;;;;;13.35;6.18;;;14.10;62.20;;;;;;4955563;29;20521;-72
2022/04/22 10:12:08;;;;;;;16.85;5.50;;;14.20;62.30;;;;;;4938360;28;20055;-72
2022/04/22 10:14:40;;;;;;;13.20;4.95;;;14.30;62.50;;;;;;4938307;29;20043;-72
2022/04/22 10:17:10;;;;;;;11.25;5.18;;;14.30;61.70;;;;;;4955465;28;20051;-72
2022/04/22 10:19:38;;;;;;;18.85;5.05;;;14.30;61.60;;;;;;4938425;29;20051;-72
2022/04/22 10:22:10;;;;;;;9.95;4.82;;;14.40;61.30;;;;;;4938063;29;20063;-72
2022/04/22 10:24:39;;;;;;;12.55;4.88;;;14.60;60.10;;;;;;4938088;28;20050;-72
2022/04/22 10:27:08;;;;;;;11.90;4.55;;;14.70;59.20;;;;;;4955055;28;20066;-72
2022/04/22 10:29:39;;;;;;;9.07;4.28;;;14.80;59.40;;;;;;4954552;28;20055;-73
2022/04/22 10:32:11;;;;;;;16.67;4.93;;;14.90;58.70;;;;;;4955156;28;20039;-73
2022/04/22 10:34:43;;;;;;;10.55;4.25;;;15.00;58.00;;;;;;4955044;28;20047;-73
2022/04/22 10:37:23;;;;;;;22.50;5.15;;;14.80;57.80;;;;;;4955052;29;20047;-72
2022/04/22 10:39:52;;;;;;;10.75;4.70;;;14.60;58.10;;;;;;4938008;29;20051;-72
2022/04/22 10:42:29;;;;;;;8.75;4.45;;;14.50;58.50;;;;;;4954956;28;20054;-73
2022/04/22 10:47:51;;;;;;;;;;;14.40;59.10;;;;;;4955412;28;20508;-72
2022/04/22 10:50:23;;;;;;;12.75;4.07;;;14.30;57.40;;;;;;4954273;28;20386;-72
2022/04/22 10:53:02;;;;;;;9.50;3.67;;;14.20;57.10;;;;;;4954876;28;20047;-72
2022/04/22 10:55:35;;;;;;;9.70;4.00;;;14.20;57.10;;;;;;4954316;28;20047;-72
2022/04/22 10:58:20;;;;;;;10.25;3.95;;;14.20;57.20;;;;;;4937310;29;20494;-72
2022/04/22 11:00:51;;;;;;;11.02;3.65;;;14.30;57.50;;;;;;4937025;29;20043;-73
2022/04/22 11:03:21;;;;;;;10.25;3.50;;;14.50;57.00;;;;;;4954671;29;20051;-72
2022/04/22 11:05:57;;;;;;;8.35;3.20;;;14.80;55.90;;;;;;4921417;29;20051;-72
2022/04/22 11:08:28;;;;;;;8.00;3.50;;;15.20;54.20;;;;;;4937170;29;20501;-72
2022/04/22 11:10:58;;;;;;;11.88;4.20;;;15.70;52.70;;;;;;4954404;29;20552;-72
2022/04/22 11:13:38;;;;;;;14.30;3.25;;;16.00;52.10;;;;;;4954591;29;20416;-73
2022/04/22 11:16:07;;;;;;;9.50;3.03;;;16.50;51.30;;;;;;4954535;29;20058;-72
2022/04/22 11:18:38;;;;;;;8.40;2.60;;;16.80;50.10;;;;;;4954322;28;20058;-73
2022/04/22 11:21:19;;;;;;;12.85;2.75;;;17.10;48.40;;;;;;4921440;29;20047;-73
2022/04/22 11:23:53;;;;;;;8.55;1.75;;;17.30;46.50;;;;;;4918229;29;20044;-72
2022/04/22 11:26:21;;;;;;;12.02;2.38;;;17.50;45.20;;;;;;4935174;29;20490;-73
2022/04/22 11:28:49;;;;;;;5.40;1.63;;;17.30;43.90;;;;;;4918127;29;20421;-73
2022/04/22 11:31:21;;;;;;;9.32;1.98;;;17.10;43.90;;;;;;4918136;29;20350;-74
2022/04/22 11:33:54;;;;;;;14.35;2.03;;;17.10;43.70;;;;;;4935190;29;20051;-73
2022/04/22 11:36:25;;;;;;;7.85;1.80;;;16.90;43.90;;;;;;4918076;29;20047;-77
2022/04/22 11:38:55;;;;;;;17.67;1.75;;;16.80;43.20;;;;;;4934991;29;20513;-72
2022/04/22 11:41:23;;;;;;;11.20;1.35;;;16.80;43.30;;;;;;4934709;29;20044;-73
2022/04/22 11:43:51;;;;;;;8.70;1.33;;;16.80;42.70;;;;;;4935097;29;20062;-73
2022/04/22 11:46:18;;;;;;;13.50;1.27;;;16.80;42.50;;;;;;4935021;29;20051;-73
2022/04/22 11:48:53;;;;;;;9.70;1.50;;;17.00;42.30;;;;;;4934900;29;20047;-73
2022/04/22 11:51:21;;;;;;;75.43;10.43;;;17.30;41.00;;;;;;4934768;29;20048;-73
2022/04/22 11:53:51;;;;;;;8.20;1.55;;;17.50;41.50;;;;;;4934935;29;20083;-73
2022/04/22 11:56:21;;;;;;;5.40;1.63;;;17.80;40.70;;;;;;4934163;29;20051;-73
2022/04/22 11:58:54;;;;;;;8.52;1.83;;;18.10;39.40;;;;;;4901909;29;20413;-73
2022/04/22 12:10:03;;;;;;;15.13;1.70;;;19.00;38.40;;;;;;4937747;29;20398;-73
2022/04/22 12:12:31;;;;;;;5.43;1.10;;;19.30;36.50;;;;;;4920582;29;20053;-73
2022/04/22 12:15:01;;;;;;;13.50;1.20;;;19.30;35.80;;;;;;4921581;29;20051;-73
2022/04/22 12:17:30;;;;;;;14.30;1.58;;;19.30;35.40;;;;;;4938427;29;20459;-73
2022/04/22 12:19:58;;;;;;;8.48;1.13;;;19.40;35.20;;;;;;4938536;29;20047;-73
2022/04/22 12:22:25;;;;;;;6.25;1.27;;;19.40;34.80;;;;;;4945904;29;20050;-73
2022/04/22 12:25:11;;;;;;;4.18;1.00;;;19.50;35.10;;;;;;4940315;29;20100;-73
2022/04/22 12:27:40;;;;;;;4.97;1.10;;;19.60;34.70;;;;;;4940199;29;20050;-72
2022/04/22 12:30:10;;;;;;;3.17;0.98;;;19.70;34.10;;;;;;4957220;28;20058;-73
2022/04/22 12:32:39;;;;;;;9.25;1.45;;;19.60;34.40;;;;;;4956597;28;20063;-71
2022/04/22 12:35:13;;;;;;;6.47;1.13;;;19.80;34.70;;;;;;4940106;29;20047;-73
2022/04/22 12:37:54;;;;;;;10.50;1.10;;;20.10;34.80;;;;;;4939259;28;20051;-73
2022/04/22 12:40:22;;;;;;;7.18;1.10;;;20.40;33.60;;;;;;4939130;29;20055;-73
2022/04/22 12:42:51;;;;;;;11.88;1.00;;;20.70;33.20;;;;;;4956442;29;20062;-72
2022/04/22 12:54:08;;;;;;;4.55;0.90;;;21.30;32.40;;;;;;4956987;28;20070;-73
2022/04/22 12:56:36;;;;;;;4.70;0.95;;;21.80;31.50;;;;;;4939187;29;20073;-73
2022/04/22 12:59:06;;;;;;;5.63;1.20;;;21.90;30.90;;;;;;4939590;29;20428;-72
2022/04/22 13:01:38;;;;;;;;;;;22.10;30.60;;;;;;4957149;28;20039;-73
2022/04/22 13:04:07;;;;;;;6.57;1.15;;;22.20;30.20;;;;;;4923734;29;19923;-73
2022/04/22 13:06:46;;;;;;;3.75;1.05;;;22.30;30.80;;;;;;4956734;28;20058;-71
2022/04/22 13:09:16;;;;;;;3.50;0.80;;;22.80;30.10;;;;;;4956643;28;20398;-72
2022/04/22 13:11:44;;;;;;;4.63;1.02;;;23.00;29.80;;;;;;4956232;29;20052;-71
2022/04/22 13:14:12;;;;;;;15.98;1.10;;;23.10;29.10;;;;;;4939700;29;20133;-71
2022/04/22 13:16:40;;;;;;;5.85;1.00;;;23.10;28.80;;;;;;4939912;29;20482;-73
2022/04/22 13:19:11;;;;;;;6.35;1.00;;;23.10;29.50;;;;;;4956159;28;20051;-71
2022/04/22 13:21:40;;;;;;;5.65;1.08;;;23.20;29.30;;;;;;4956418;28;20078;-72
2022/04/22 13:24:09;;;;;;;2.90;0.80;;;23.40;29.20;;;;;;4956659;29;20070;-72
2022/04/22 13:26:37;;;;;;;11.00;1.08;;;23.60;28.90;;;;;;4956640;28;20043;-74
2022/04/22 13:29:06;;;;;;;2.40;1.00;;;24.00;28.90;;;;;;4955750;28;20066;-73
2022/04/22 13:31:35;;;;;;;5.13;0.90;;;24.20;28.00;;;;;;4955455;29;20059;-73
2022/04/22 13:34:04;;;;;;;6.68;0.95;;;23.80;28.20;;;;;;4938616;29;20055;-72
2022/04/22 13:36:34;;;;;;;5.20;1.00;;;23.30;28.20;;;;;;4956495;29;20043;-72
2022/04/22 13:39:02;;;;;;;3.08;0.98;;;23.20;28.50;;;;;;4939053;29;20055;-73
2022/04/22 13:41:30;;;;;;;1.52;0.90;;;22.90;28.10;;;;;;4956439;29;20066;-72
2022/04/22 13:43:57;;;;;;;3.53;0.90;;;22.50;28.80;;;;;;4923438;29;20047;-73
2022/04/22 13:54:49;;;;;;;4.97;0.93;;;22.00;30.60;;;;;;4878103;29;20432;-72
2022/04/22 13:57:17;;;;;;;5.93;1.05;;;22.40;28.80;;;;;;4878153;29;20069;-71
2022/04/22 13:59:45;;;;;;;4.38;1.15;;;22.70;28.10;;;;;;4878123;29;20053;-73
2022/04/22 14:02:12;;;;;;;7.10;1.00;;;22.80;27.60;;;;;;4862578;29;20053;-71
2022/04/22 14:04:41;;;;;;;2.20;0.80;;;22.90;28.30;;;;;;4877845;29;20056;-71
2022/04/22 14:07:09;;;;;;;3.75;1.08;;;22.80;28.10;;;;;;4877320;29;20056;-72
2022/04/22 14:09:37;;;;;;;4.18;0.80;;;22.30;28.90;;;;;;4875969;29;20178;-72
2022/04/22 14:12:06;;;;;;;4.00;0.75;;;22.00;28.90;;;;;;4877331;29;20057;-71
2022/04/22 14:14:35;;;;;;;4.05;1.30;;;21.50;29.90;;;;;;4877771;29;20197;-71